Time;durP1;ratioP1;P1;durP2;ratioP2;P2;SDS_P1;SDS_P2;PMS_P1;PMS_P2;Temp;Humidity;BMP_temperature;BMP_pressure;BME280_temperature;BME280_humidity;BME280_pressure;Samples;Min_cycle;Max_cycle;Signal;HPM_P1;HPM_P2
2021/10/17 00:02:21;;;;;;;2.00;1.80;;;;;;;;;;4994223;28;20214;-81
2021/10/17 00:04:49;;;;;;;4.82;2.60;;;;;;;;;;4996039;28;20207;-81
2021/10/17 00:07:16;;;;;;;1.85;1.70;;;;;;;;;;4996695;28;20215;-81
2021/10/17 00:09:45;;;;;;;6.55;2.00;;;;;;;;;;4995470;28;20594;-81
2021/10/17 00:12:13;;;;;;;2.03;1.77;;;;;;;;;;4995805;28;20218;-81
2021/10/17 00:14:41;;;;;;;2.10;1.73;;;;;;;;;;4995796;28;20195;-81
2021/10/17 00:17:09;;;;;;;2.55;1.90;;;;;;;;;;4995873;28;20203;-81
2021/10/17 00:19:37;;;;;;;1.55;1.40;;;;;;;;;;4994723;28;20748;-81
2021/10/17 00:22:04;;;;;;;1.70;1.60;;;;;;;;;;4996017;28;20190;-81
2021/10/17 00:24:32;;;;;;;1.40;1.30;;;;;;;;;;4995554;28;20215;-81
2021/10/17 00:27:01;;;;;;;2.75;1.50;;;;;;;;;;4995749;28;20199;-81
2021/10/17 00:29:29;;;;;;;1.77;1.63;;;;;;;;;;4996071;28;20231;-81
2021/10/17 00:31:56;;;;;;;2.67;2.42;;;;;;;;;;4996268;28;20194;-80
2021/10/17 00:34:24;;;;;;;2.88;2.33;;;;;;;;;;4996192;28;20210;-81
2021/10/17 00:36:51;;;;;;;2.17;1.98;;;;;;;;;;4996074;28;20682;-81
2021/10/17 00:39:18;;;;;;;2.30;2.10;;;;;;;;;;4996040;28;20228;-81
2021/10/17 00:41:47;;;;;;;2.85;2.60;;;;;;;;;;4995993;28;20187;-81
2021/10/17 00:44:23;;;;;;;2.63;2.42;;;;;;;;;;4995859;28;20208;-80
2021/10/17 00:46:51;;;;;;;2.55;2.00;;;;;;;;;;4996012;28;20230;-82
2021/10/17 00:49:19;;;;;;;1.90;1.80;;;;;;;;;;4987616;28;20224;-81
2021/10/17 00:51:47;;;;;;;2.08;1.98;;;;;;;;;;4976939;28;20224;-81
2021/10/17 00:54:16;;;;;;;2.20;2.00;;;;;;;;;;4975714;28;20200;-80
2021/10/17 00:56:46;;;;;;;2.88;1.98;;;;;;;;;;4975923;28;20216;-80
2021/10/17 00:59:14;;;;;;;2.25;2.05;;;;;;;;;;4976255;28;20217;-81
2021/10/17 01:01:43;;;;;;;3.70;2.28;;;;;;;;;;4975912;28;20648;-81
2021/10/17 01:04:11;;;;;;;4.90;2.00;;;;;;;;;;4975800;28;20200;-81
2021/10/17 01:06:38;;;;;;;1.70;1.60;;;;;;;;;;4975167;28;20193;-81
2021/10/17 01:09:07;;;;;;;5.38;2.28;;;;;;;;;;4975162;28;20790;-83
2021/10/17 01:11:42;;;;;;;2.05;1.95;;;;;;;;;;4975883;28;20192;-81
2021/10/17 01:14:15;;;;;;;3.42;2.75;;;;;;;;;;4975095;28;20188;-81
2021/10/17 01:16:44;;;;;;;3.22;2.63;;;;;;;;;;4983462;28;20199;-81
2021/10/17 01:19:11;;;;;;;3.05;2.05;;;;;;;;;;4994522;28;20308;-81
2021/10/17 01:21:42;;;;;;;4.47;2.58;;;;;;;;;;4994738;28;20587;-81
2021/10/17 01:24:10;;;;;;;3.08;2.35;;;;;;;;;;4994493;28;20671;-80
2021/10/17 01:26:39;;;;;;;3.67;2.08;;;;;;;;;;4994807;28;20195;-82
2021/10/17 01:29:07;;;;;;;3.70;2.47;;;;;;;;;;4994353;28;20228;-80
2021/10/17 01:31:37;;;;;;;6.72;2.95;;;;;;;;;;4994930;28;20211;-80
2021/10/17 01:34:06;;;;;;;3.88;2.90;;;;;;;;;;4997762;28;20210;-81
2021/10/17 01:36:34;;;;;;;3.40;2.50;;;;;;;;;;4998081;28;20188;-82
2021/10/17 01:39:04;;;;;;;4.47;2.97;;;;;;;;;;4997928;28;20224;-81
2021/10/17 01:41:31;;;;;;;2.25;2.00;;;;;;;;;;4998504;28;20196;-82
2021/10/17 01:44:02;;;;;;;2.53;2.33;;;;;;;;;;4997637;28;20208;-81
2021/10/17 01:46:29;;;;;;;2.10;1.98;;;;;;;;;;4992873;28;20248;-81
2021/10/17 01:48:57;;;;;;;4.45;2.95;;;;;;;;;;4978183;28;20231;-81
2021/10/17 01:51:24;;;;;;;2.63;2.25;;;;;;;;;;4978124;28;20200;-80
2021/10/17 01:53:52;;;;;;;3.20;2.00;;;;;;;;;;4977843;28;20208;-82
2021/10/17 01:56:21;;;;;;;2.42;1.77;;;;;;;;;;4978289;28;20550;-80
2021/10/17 01:58:48;;;;;;;2.05;1.85;;;;;;;;;;4978128;28;20256;-81
2021/10/17 02:01:16;;;;;;;2.58;2.20;;;;;;;;;;4978175;28;20209;-80
2021/10/17 02:03:44;;;;;;;1.70;1.60;;;;;;;;;;4978230;28;20219;-81
2021/10/17 02:06:12;;;;;;;1.88;1.70;;;;;;;;;;4977964;28;20219;-82
2021/10/17 02:08:39;;;;;;;5.38;2.05;;;;;;;;;;4978167;28;20224;-81
2021/10/17 02:11:07;;;;;;;2.17;1.90;;;;;;;;;;4978461;28;20215;-80
2021/10/17 02:13:35;;;;;;;2.38;1.80;;;;;;;;;;4977607;28;20657;-81
2021/10/17 02:16:03;;;;;;;4.35;2.00;;;;;;;;;;4978061;28;20188;-81
2021/10/17 02:18:30;;;;;;;2.45;2.08;;;;;;;;;;4977933;28;20228;-80
2021/10/17 02:20:58;;;;;;;2.03;1.92;;;;;;;;;;4978106;28;20200;-81
2021/10/17 02:23:25;;;;;;;4.47;1.88;;;;;;;;;;4977743;28;20632;-81
2021/10/17 02:25:52;;;;;;;2.55;2.15;;;;;;;;;;4966499;28;20201;-81
2021/10/17 02:28:20;;;;;;;1.60;1.50;;;;;;;;;;4959626;29;20236;-81
2021/10/17 02:30:48;;;;;;;2.28;1.55;;;;;;;;;;4958432;29;20216;-81
2021/10/17 02:33:16;;;;;;;2.35;1.58;;;;;;;;;;4958728;29;20196;-81
2021/10/17 02:35:44;;;;;;;1.80;1.70;;;;;;;;;;4968579;28;20192;-81
2021/10/17 02:38:11;;;;;;;1.08;1.08;;;;;;;;;;4977511;28;20297;-82
2021/10/17 02:40:39;;;;;;;1.38;1.27;;;;;;;;;;4977588;28;20802;-80
2021/10/17 02:43:07;;;;;;;1.13;1.13;;;;;;;;;;4979283;28;20185;-80
2021/10/17 02:45:35;;;;;;;1.38;1.20;;;;;;;;;;4997227;28;20565;-82
2021/10/17 02:48:05;;;;;;;1.33;1.23;;;;;;;;;;4996425;28;20231;-81
2021/10/17 02:50:32;;;;;;;1.50;1.40;;;;;;;;;;4996013;28;20232;-80
2021/10/17 02:53:00;;;;;;;1.10;1.10;;;;;;;;;;4996169;28;20243;-81
2021/10/17 02:55:27;;;;;;;1.48;1.38;;;;;;;;;;4996887;28;20194;-81
2021/10/17 02:57:55;;;;;;;1.60;1.50;;;;;;;;;;4997010;28;20223;-81
2021/10/17 03:00:23;;;;;;;2.38;2.17;;;;;;;;;;4996174;28;20192;-81
2021/10/17 03:02:51;;;;;;;1.50;1.40;;;;;;;;;;4996583;28;20200;-81
2021/10/17 03:05:19;;;;;;;1.60;1.50;;;;;;;;;;4977870;28;20204;-81
2021/10/17 03:07:47;;;;;;;2.10;1.90;;;;;;;;;;4977092;28;20225;-80
2021/10/17 03:10:14;;;;;;;2.20;2.00;;;;;;;;;;4976595;28;20231;-81
2021/10/17 03:12:42;;;;;;;2.42;2.22;;;;;;;;;;4976950;28;20212;-80
2021/10/17 03:15:10;;;;;;;2.80;2.13;;;;;;;;;;4976130;28;20655;-81
2021/10/17 03:17:38;;;;;;;2.13;2.03;;;;;;;;;;4976253;28;20227;-82
2021/10/17 03:20:06;;;;;;;3.10;2.85;;;;;;;;;;4977128;28;20773;-80
2021/10/17 03:22:35;;;;;;;2.53;1.95;;;;;;;;;;4976674;28;20185;-81
2021/10/17 03:25:02;;;;;;;2.35;2.15;;;;;;;;;;4991900;28;20202;-81
2021/10/17 03:27:30;;;;;;;1.63;1.52;;;;;;;;;;4996220;28;20208;-82
2021/10/17 03:29:57;;;;;;;2.22;1.90;;;;;;;;;;4994690;28;20184;-80
2021/10/17 03:32:25;;;;;;;2.55;2.35;;;;;;;;;;4985804;28;20216;-81
2021/10/17 03:34:52;;;;;;;2.40;2.20;;;;;;;;;;4988086;28;20192;-81
2021/10/17 03:37:20;;;;;;;1.80;1.70;;;;;;;;;;4995412;28;20211;-80
2021/10/17 03:39:49;;;;;;;1.80;1.70;;;;;;;;;;4995478;28;20187;-80
2021/10/17 03:42:16;;;;;;;2.08;1.90;;;;;;;;;;4978186;28;20200;-81
2021/10/17 03:44:43;;;;;;;2.00;1.90;;;;;;;;;;4975608;28;20204;-81
2021/10/17 03:47:11;;;;;;;1.77;1.67;;;;;;;;;;4979141;28;20192;-81
2021/10/17 03:49:40;;;;;;;1.60;1.50;;;;;;;;;;4963566;28;20201;-80
2021/10/17 03:52:07;;;;;;;1.83;1.73;;;;;;;;;;4962651;28;20224;-80
2021/10/17 03:54:35;;;;;;;2.30;2.10;;;;;;;;;;4995552;28;20215;-81
2021/10/17 03:57:04;;;;;;;2.17;1.98;;;;;;;;;;4995208;28;20203;-81
2021/10/17 03:59:31;;;;;;;2.00;1.90;;;;;;;;;;4995219;28;20216;-81
2021/10/17 04:01:59;;;;;;;1.92;1.83;;;;;;;;;;4962720;28;20203;-81
2021/10/17 04:04:26;;;;;;;2.00;1.90;;;;;;;;;;4975807;28;20208;-80
2021/10/17 04:06:54;;;;;;;1.85;1.75;;;;;;;;;;4975504;28;20569;-80
2021/10/17 04:09:21;;;;;;;1.90;1.80;;;;;;;;;;4975184;28;20212;-82
2021/10/17 04:11:51;;;;;;;3.28;2.20;;;;;;;;;;4956281;29;20220;-81
2021/10/17 04:14:20;;;;;;;1.90;1.80;;;;;;;;;;4956590;29;20221;-81
2021/10/17 04:16:47;;;;;;;2.13;2.03;;;;;;;;;;4956359;28;20209;-81
2021/10/17 04:19:15;;;;;;;1.60;1.50;;;;;;;;;;4967222;28;20215;-80
2021/10/17 04:21:42;;;;;;;2.92;2.20;;;;;;;;;;4984058;28;20582;-81
2021/10/17 04:24:10;;;;;;;1.83;1.50;;;;;;;;;;4974722;28;20196;-81
2021/10/17 04:26:38;;;;;;;1.40;1.30;;;;;;;;;;4975497;28;20192;-80
2021/10/17 04:29:05;;;;;;;1.33;1.23;;;;;;;;;;4987147;28;20220;-80
2021/10/17 04:31:34;;;;;;;2.25;2.05;;;;;;;;;;4974501;28;20256;-81
2021/10/17 04:34:01;;;;;;;2.03;1.92;;;;;;;;;;4975298;28;20242;-81
2021/10/17 04:36:29;;;;;;;1.98;1.38;;;;;;;;;;4975326;28;20196;-80
2021/10/17 04:38:57;;;;;;;2.22;1.42;;;;;;;;;;4991890;28;20223;-81
2021/10/17 04:41:24;;;;;;;1.58;1.25;;;;;;;;;;4980221;28;20279;-81
2021/10/17 04:43:52;;;;;;;2.47;2.25;;;;;;;;;;4974973;28;20212;-80
2021/10/17 04:46:19;;;;;;;1.90;1.50;;;;;;;;;;4993439;28;20192;-80
2021/10/17 04:48:48;;;;;;;1.40;1.23;;;;;;;;;;4993872;28;20224;-81
2021/10/17 04:51:15;;;;;;;1.30;1.20;;;;;;;;;;4993144;28;20227;-80
2021/10/17 04:53:43;;;;;;;1.50;1.40;;;;;;;;;;4974393;28;20200;-80
2021/10/17 04:56:10;;;;;;;1.33;1.23;;;;;;;;;;4974696;28;20212;-80
2021/10/17 04:58:38;;;;;;;1.33;1.23;;;;;;;;;;4974992;28;20220;-81
2021/10/17 05:01:05;;;;;;;1.10;1.00;;;;;;;;;;4974200;28;20187;-81
2021/10/17 05:03:33;;;;;;;2.10;2.03;;;;;;;;;;4974688;28;20219;-81
2021/10/17 05:06:01;;;;;;;1.05;1.05;;;;;;;;;;4976306;28;20205;-81
2021/10/17 05:08:29;;;;;;;1.42;1.33;;;;;;;;;;4978191;28;20216;-81
2021/10/17 05:10:56;;;;;;;1.17;1.15;;;;;;;;;;4959066;28;20593;-81
2021/10/17 05:13:24;;;;;;;0.90;0.90;;;;;;;;;;4974789;28;20200;-81
2021/10/17 05:15:51;;;;;;;1.23;1.13;;;;;;;;;;4978361;28;20193;-80
2021/10/17 05:18:19;;;;;;;2.08;1.80;;;;;;;;;;4977897;28;20232;-81
2021/10/17 05:20:46;;;;;;;2.40;1.60;;;;;;;;;;4977672;28;20192;-81
2021/10/17 05:23:15;;;;;;;1.58;1.48;;;;;;;;;;4967744;28;20192;-80
2021/10/17 05:25:43;;;;;;;1.20;1.20;;;;;;;;;;4977264;28;20188;-82
2021/10/17 05:28:11;;;;;;;2.13;1.50;;;;;;;;;;4971894;28;20221;-80
2021/10/17 05:30:39;;;;;;;2.05;1.95;;;;;;;;;;4976556;28;20208;-80
2021/10/17 05:33:07;;;;;;;2.67;2.40;;;;;;;;;;4976667;28;20216;-81
2021/10/17 05:35:34;;;;;;;2.22;2.08;;;;;;;;;;4977238;28;20207;-80
2021/10/17 05:38:02;;;;;;;1.65;1.55;;;;;;;;;;4976890;28;20235;-80
2021/10/17 05:40:31;;;;;;;1.60;1.50;;;;;;;;;;4977214;28;20199;-82
2021/10/17 05:42:59;;;;;;;1.75;1.65;;;;;;;;;;4976531;28;20212;-80
2021/10/17 05:45:27;;;;;;;2.15;2.00;;;;;;;;;;4976924;28;20197;-81
2021/10/17 05:47:54;;;;;;;1.80;1.65;;;;;;;;;;4977073;28;20231;-82
2021/10/17 05:50:22;;;;;;;1.73;1.63;;;;;;;;;;4977232;28;20195;-82
2021/10/17 05:52:49;;;;;;;2.42;2.22;;;;;;;;;;4976777;28;20236;-81
2021/10/17 05:55:17;;;;;;;3.35;2.85;;;;;;;;;;4994432;28;20191;-81
2021/10/17 05:57:46;;;;;;;2.05;1.95;;;;;;;;;;4996563;28;20224;-81
2021/10/17 06:00:14;;;;;;;1.50;1.50;;;;;;;;;;4980082;28;20204;-81
2021/10/17 06:02:43;;;;;;;2.13;1.92;;;;;;;;;;4981135;28;20189;-82
2021/10/17 06:05:10;;;;;;;1.80;1.70;;;;;;;;;;4988259;28;20643;-82
2021/10/17 06:07:38;;;;;;;3.20;2.40;;;;;;;;;;4985237;28;20227;-82
2021/10/17 06:10:08;;;;;;;2.42;2.22;;;;;;;;;;4983030;28;20572;-82
2021/10/17 06:12:36;;;;;;;2.97;2.78;;;;;;;;;;4993381;28;20203;-81
2021/10/17 06:15:07;;;;;;;1.80;1.70;;;;;;;;;;4996317;28;20199;-82
2021/10/17 06:17:35;;;;;;;1.65;1.55;;;;;;;;;;4979768;28;20215;-83
2021/10/17 06:20:03;;;;;;;1.90;1.80;;;;;;;;;;4986038;28;20196;-81
2021/10/17 06:22:31;;;;;;;1.60;1.50;;;;;;;;;;4981969;28;20180;-82
2021/10/17 06:24:58;;;;;;;1.20;1.10;;;;;;;;;;4995824;28;20665;-82
2021/10/17 06:27:26;;;;;;;2.65;2.45;;;;;;;;;;4980177;28;20210;-82
2021/10/17 06:29:53;;;;;;;1.20;1.20;;;;;;;;;;4977064;28;20193;-82
2021/10/17 06:32:22;;;;;;;1.75;1.65;;;;;;;;;;4980347;28;20231;-83
2021/10/17 06:34:50;;;;;;;1.58;1.48;;;;;;;;;;4995799;28;20685;-81
2021/10/17 06:37:17;;;;;;;1.80;1.70;;;;;;;;;;4956968;29;20205;-82
2021/10/17 06:39:44;;;;;;;1.77;1.67;;;;;;;;;;4977091;28;20759;-81
2021/10/17 06:42:13;;;;;;;1.60;1.50;;;;;;;;;;4976948;28;20188;-81
2021/10/17 06:44:40;;;;;;;1.65;1.55;;;;;;;;;;4976105;28;20191;-82
2021/10/17 06:47:08;;;;;;;2.08;1.98;;;;;;;;;;4976703;28;20199;-82
2021/10/17 06:49:37;;;;;;;2.45;2.25;;;;;;;;;;4975806;28;20231;-83
2021/10/17 06:52:05;;;;;;;3.50;3.05;;;;;;;;;;4980060;28;20790;-81
2021/10/17 06:54:33;;;;;;;3.10;2.90;;;;;;;;;;4989639;28;20203;-81
2021/10/17 06:57:00;;;;;;;3.42;2.80;;;;;;;;;;4975934;28;20197;-81
2021/10/17 06:59:27;;;;;;;3.00;2.80;;;;;;;;;;4986464;28;20227;-82
2021/10/17 07:01:55;;;;;;;3.25;3.05;;;;;;;;;;4976110;28;20314;-81
2021/10/17 07:04:22;;;;;;;2.95;2.75;;;;;;;;;;4985780;28;20204;-82
2021/10/17 07:06:52;;;;;;;2.03;1.92;;;;;;;;;;4986704;28;20192;-82
2021/10/17 07:09:20;;;;;;;2.33;2.22;;;;;;;;;;4975532;28;20228;-82
2021/10/17 07:11:47;;;;;;;1.95;1.85;;;;;;;;;;4975542;28;20196;-82
2021/10/17 07:14:14;;;;;;;2.20;2.08;;;;;;;;;;4993073;28;20231;-83
2021/10/17 07:16:43;;;;;;;1.90;1.80;;;;;;;;;;4986521;28;20201;-82
2021/10/17 07:19:11;;;;;;;2.60;2.40;;;;;;;;;;4976728;28;20228;-83
2021/10/17 07:21:39;;;;;;;2.95;2.75;;;;;;;;;;4958930;29;20205;-82
2021/10/17 07:24:17;;;;;;;2.53;2.28;;;;;;;;;;4957167;29;20205;-84
2021/10/17 07:26:44;;;;;;;2.95;2.70;;;;;;;;;;4957504;29;20193;-85
2021/10/17 07:29:13;;;;;;;3.90;2.33;;;;;;;;;;4957055;28;20225;-83
2021/10/17 07:31:49;;;;;;;2.13;2.03;;;;;;;;;;4963893;28;20208;-84
2021/10/17 07:34:16;;;;;;;3.47;2.88;;;;;;;;;;4977952;28;20212;-85
2021/10/17 07:36:45;;;;;;;2.50;2.30;;;;;;;;;;4978475;28;20188;-84
2021/10/17 07:39:12;;;;;;;1.98;1.88;;;;;;;;;;4977764;28;20224;-85
2021/10/17 07:41:47;;;;;;;2.08;1.92;;;;;;;;;;4978170;28;20587;-82
2021/10/17 07:44:15;;;;;;;5.38;2.83;;;;;;;;;;4978963;28;20275;-85
2021/10/17 07:46:43;;;;;;;2.58;2.38;;;;;;;;;;4980998;28;20240;-85
2021/10/17 07:49:10;;;;;;;3.03;2.72;;;;;;;;;;4979673;28;20601;-83
2021/10/17 07:51:38;;;;;;;3.75;3.13;;;;;;;;;;4972438;28;20225;-85
2021/10/17 07:54:08;;;;;;;2.53;2.33;;;;;;;;;;4959621;29;20219;-85
2021/10/17 07:56:35;;;;;;;2.33;2.17;;;;;;;;;;4963303;28;20204;-83
2021/10/17 07:59:05;;;;;;;2.83;2.63;;;;;;;;;;4983331;28;20247;-83
2021/10/17 08:01:35;;;;;;;3.30;3.10;;;;;;;;;;4967640;28;20204;-85
2021/10/17 08:04:05;;;;;;;3.08;2.88;;;;;;;;;;4962975;29;20196;-83
2021/10/17 08:06:38;;;;;;;2.55;2.42;;;;;;;;;;4961944;29;20207;-83
2021/10/17 08:09:09;;;;;;;3.60;3.30;;;;;;;;;;4961004;29;20233;-85
2021/10/17 08:11:37;;;;;;;3.65;3.33;;;;;;;;;;4962095;29;20228;-83
2021/10/17 08:14:06;;;;;;;3.40;3.10;;;;;;;;;;4959995;29;20205;-82
2021/10/17 08:16:33;;;;;;;2.97;2.78;;;;;;;;;;4959781;29;20208;-84
2021/10/17 08:19:08;;;;;;;3.85;3.45;;;;;;;;;;4960907;28;20224;-84
2021/10/17 08:21:36;;;;;;;2.70;2.50;;;;;;;;;;4961763;29;20686;-84
2021/10/17 08:24:10;;;;;;;2.45;2.25;;;;;;;;;;4962804;29;20205;-86
2021/10/17 08:26:39;;;;;;;2.38;2.20;;;;;;;;;;4961213;28;20200;-83
2021/10/17 08:29:09;;;;;;;2.58;2.38;;;;;;;;;;4962502;29;20228;-85
2021/10/17 08:31:37;;;;;;;2.88;2.67;;;;;;;;;;4961041;29;20220;-84
2021/10/17 08:34:04;;;;;;;2.70;2.50;;;;;;;;;;4960444;29;20676;-83
2021/10/17 08:36:35;;;;;;;2.38;2.20;;;;;;;;;;4958787;29;20187;-84
2021/10/17 08:39:02;;;;;;;3.65;3.35;;;;;;;;;;4957880;28;20325;-84
2021/10/17 08:41:43;;;;;;;3.17;2.88;;;;;;;;;;4958670;29;20225;-85
2021/10/17 08:44:15;;;;;;;5.45;2.70;;;;;;;;;;4959770;28;20201;-85
2021/10/17 08:46:56;;;;;;;2.60;2.40;;;;;;;;;;4959733;29;20189;-85
2021/10/17 08:49:26;;;;;;;3.63;2.97;;;;;;;;;;4959247;29;20220;-84
2021/10/17 08:51:55;;;;;;;3.92;3.63;;;;;;;;;;4965534;28;20235;-84
2021/10/17 08:54:27;;;;;;;4.93;3.85;;;;;;;;;;4978486;28;20227;-86
2021/10/17 08:56:54;;;;;;;3.50;3.20;;;;;;;;;;4978335;28;20185;-84
2021/10/17 08:59:25;;;;;;;2.80;2.60;;;;;;;;;;4973525;28;20611;-85
2021/10/17 09:01:52;;;;;;;3.80;2.63;;;;;;;;;;4940659;29;20213;-87
2021/10/17 09:04:28;;;;;;;3.85;3.55;;;;;;;;;;4944893;29;20186;-85
2021/10/17 09:06:55;;;;;;;3.78;3.47;;;;;;;;;;4943531;29;20190;-83
2021/10/17 09:09:23;;;;;;;3.00;2.80;;;;;;;;;;4945812;29;20223;-84
2021/10/17 09:11:56;;;;;;;2.97;2.78;;;;;;;;;;4945561;29;20194;-83
2021/10/17 09:14:27;;;;;;;2.40;2.30;;;;;;;;;;4940648;29;20692;-81
2021/10/17 09:16:58;;;;;;;3.28;2.40;;;;;;;;;;4947720;29;20276;-87
2021/10/17 09:19:27;;;;;;;2.50;2.35;;;;;;;;;;4946277;29;20225;-84
2021/10/17 09:22:02;;;;;;;3.20;3.00;;;;;;;;;;4946364;29;20209;-84
2021/10/17 09:24:33;;;;;;;2.45;2.25;;;;;;;;;;4943109;29;20675;-84
2021/10/17 09:27:10;;;;;;;3.47;3.15;;;;;;;;;;4941211;29;20226;-84
2021/10/17 09:29:41;;;;;;;3.70;3.15;;;;;;;;;;4944372;29;20604;-84
2021/10/17 09:32:15;;;;;;;4.15;3.85;;;;;;;;;;4960412;29;20181;-86
2021/10/17 09:34:54;;;;;;;4.38;3.97;;;;;;;;;;4960062;29;20220;-84
2021/10/17 09:37:29;;;;;;;4.57;3.78;;;;;;;;;;4959711;29;20242;-83
2021/10/17 09:40:07;;;;;;;3.88;3.58;;;;;;;;;;4959298;29;20270;-84
2021/10/17 09:42:40;;;;;;;3.33;3.13;;;;;;;;;;4959342;29;20213;-84
2021/10/17 09:45:22;;;;;;;4.25;3.65;;;;;;;;;;4959078;29;20641;-84
2021/10/17 09:47:50;;;;;;;3.75;3.38;;;;;;;;;;4959320;29;20610;-83
2021/10/17 09:50:20;;;;;;;3.35;3.13;;;;;;;;;;4939809;29;20688;-81
2021/10/17 09:53:07;;;;;;;2.60;2.40;;;;;;;;;;4950735;29;20730;-85
2021/10/17 09:55:35;;;;;;;2.85;2.65;;;;;;;;;;4958243;29;20235;-86
2021/10/17 09:58:05;;;;;;;3.42;3.13;;;;;;;;;;4957158;29;20229;-87
2021/10/17 10:00:38;;;;;;;3.08;2.83;;;;;;;;;;4958901;29;20660;-88
2021/10/17 10:03:09;;;;;;;3.15;2.85;;;;;;;;;;4957599;29;20652;-85
2021/10/17 10:05:36;;;;;;;2.50;2.30;;;;;;;;;;4958657;29;20245;-86
2021/10/17 10:08:05;;;;;;;3.90;3.50;;;;;;;;;;4964562;28;20231;-87
2021/10/17 10:10:33;;;;;;;4.45;4.10;;;;;;;;;;4956208;29;20208;-87
2021/10/17 10:13:05;;;;;;;2.65;2.47;;;;;;;;;;4956980;29;20192;-87
2021/10/17 10:15:33;;;;;;;3.45;3.15;;;;;;;;;;4956603;29;20703;-86
2021/10/17 10:18:04;;;;;;;2.90;2.70;;;;;;;;;;4958697;28;20225;-85
2021/10/17 10:20:32;;;;;;;3.28;2.97;;;;;;;;;;4976865;28;20192;-87
2021/10/17 10:23:00;;;;;;;2.60;2.45;;;;;;;;;;4975837;28;20185;-87
2021/10/17 10:25:29;;;;;;;2.70;2.50;;;;;;;;;;4975238;28;20197;-89
2021/10/17 10:27:56;;;;;;;3.22;2.92;;;;;;;;;;4956713;29;20245;-87
2021/10/17 10:30:28;;;;;;;5.20;2.80;;;;;;;;;;4956643;29;20189;-87
2021/10/17 10:33:21;;;;;;;3.03;2.83;;;;;;;;;;4956172;29;20263;-87
2021/10/17 10:36:04;;;;;;;3.63;3.33;;;;;;;;;;4937836;29;20696;-86
2021/10/17 10:39:16;;;;;;;2.88;2.30;;;;;;;;;;4957294;29;20225;-88
2021/10/17 10:41:53;;;;;;;2.92;2.63;;;;;;;;;;4936026;29;20664;-86
2021/10/17 10:44:22;;;;;;;2.85;2.65;;;;;;;;;;4956812;29;20189;-88
2021/10/17 10:46:52;;;;;;;2.13;2.03;;;;;;;;;;4956055;29;20555;-88
2021/10/17 10:49:47;;;;;;;2.05;1.92;;;;;;;;;;4957262;28;20229;-87
2021/10/17 10:52:47;;;;;;;3.22;2.88;;;;;;;;;;4983180;28;20241;-87
2021/10/17 10:55:47;;;;;;;3.00;2.70;;;;;;;;;;4994880;28;20219;-87
2021/10/17 10:58:25;;;;;;;3.63;2.83;;;;;;;;;;4994726;28;20227;-87
2021/10/17 11:00:55;;;;;;;3.75;3.28;;;;;;;;;;4994530;28;20187;-87
2021/10/17 11:03:26;;;;;;;5.28;3.85;;;;;;;;;;4993924;28;20184;-87
2021/10/17 11:06:19;;;;;;;4.18;3.67;;;;;;;;;;4994444;28;20195;-87
2021/10/17 11:09:24;;;;;;;3.90;3.50;;;;;;;;;;4979308;28;20220;-87
2021/10/17 11:11:51;;;;;;;3.55;3.25;;;;;;;;;;4974737;28;20227;-86
2021/10/17 11:14:19;;;;;;;3.13;2.88;;;;;;;;;;4984536;28;20203;-87
2021/10/17 11:16:47;;;;;;;3.38;3.08;;;;;;;;;;4993599;28;20270;-87
2021/10/17 11:19:17;;;;;;;4.20;2.50;;;;;;;;;;4994265;28;20710;-86
2021/10/17 11:21:46;;;;;;;5.82;3.70;;;;;;;;;;4994189;28;20604;-87
2021/10/17 11:24:20;;;;;;;3.53;3.22;;;;;;;;;;4993818;28;20562;-88
2021/10/17 11:26:47;;;;;;;2.80;2.60;;;;;;;;;;4992342;28;20210;-86
2021/10/17 11:29:15;;;;;;;4.57;4.18;;;;;;;;;;4993950;28;20655;-87
2021/10/17 11:31:42;;;;;;;3.13;2.55;;;;;;;;;;4993811;28;20207;-86
2021/10/17 11:34:09;;;;;;;2.63;2.42;;;;;;;;;;4993742;28;20200;-88
2021/10/17 11:36:37;;;;;;;4.78;3.90;;;;;;;;;;4994093;28;20212;-86
2021/10/17 11:39:07;;;;;;;3.78;3.42;;;;;;;;;;4985993;28;20754;-88
2021/10/17 11:41:35;;;;;;;3.28;2.80;;;;;;;;;;4975483;28;20635;-87
2021/10/17 11:44:02;;;;;;;3.53;3.22;;;;;;;;;;4978369;28;20192;-88
2021/10/17 11:46:30;;;;;;;4.72;4.07;;;;;;;;;;4981757;28;20204;-88
2021/10/17 11:49:00;;;;;;;4.25;3.85;;;;;;;;;;4993227;28;20710;-88
2021/10/17 11:51:27;;;;;;;4.32;3.38;;;;;;;;;;4993905;28;20666;-86
2021/10/17 11:53:58;;;;;;;3.17;2.88;;;;;;;;;;4989863;28;20210;-86
2021/10/17 11:56:27;;;;;;;3.58;3.28;;;;;;;;;;4994634;28;20709;-85
2021/10/17 11:58:55;;;;;;;2.58;2.38;;;;;;;;;;4976126;28;20228;-84
2021/10/17 12:01:22;;;;;;;2.90;2.70;;;;;;;;;;4992462;28;20206;-86
2021/10/17 12:03:53;;;;;;;2.70;2.28;;;;;;;;;;4994649;28;20203;-85
2021/10/17 12:06:22;;;;;;;5.45;3.03;;;;;;;;;;4995339;28;20659;-85
2021/10/17 12:08:54;;;;;;;3.92;3.15;;;;;;;;;;4994230;28;20686;-85
2021/10/17 12:11:24;;;;;;;2.88;2.58;;;;;;;;;;4995429;28;20671;-85
2021/10/17 12:13:54;;;;;;;4.78;4.00;;;;;;;;;;4982109;28;20199;-87
2021/10/17 12:16:23;;;;;;;3.83;2.92;;;;;;;;;;4975903;28;20212;-85
2021/10/17 12:18:54;;;;;;;2.42;2.22;;;;;;;;;;4994861;28;20223;-86
2021/10/17 12:21:23;;;;;;;2.10;2.00;;;;;;;;;;4994007;28;20202;-87
2021/10/17 12:23:52;;;;;;;2.53;2.20;;;;;;;;;;4994451;28;20565;-85
2021/10/17 12:26:21;;;;;;;2.83;2.63;;;;;;;;;;4994328;28;20192;-85
2021/10/17 12:31:46;;;;;;;2.42;1.95;;;;;;;;;;5151792;27;20294;-86
2021/10/17 12:34:15;;;;;;;2.38;2.10;;;;;;;;;;5131328;28;20267;-86
2021/10/17 12:36:43;;;;;;;3.03;2.80;;;;;;;;;;5131336;28;20195;-85
2021/10/17 12:39:13;;;;;;;4.85;2.50;;;;;;;;;;5114798;28;20214;-85
2021/10/17 12:41:41;;;;;;;2.05;1.90;;;;;;;;;;5110610;28;20553;-85
2021/10/17 12:44:10;;;;;;;3.38;2.97;;;;;;;;;;5110821;28;20558;-86
2021/10/17 12:46:38;;;;;;;4.47;2.08;;;;;;;;;;5110886;28;20184;-86
2021/10/17 12:49:12;;;;;;;2.78;2.58;;;;;;;;;;5110973;28;20595;-86
2021/10/17 12:51:49;;;;;;;2.20;2.00;;;;;;;;;;5110486;28;20207;-86
2021/10/17 12:54:19;;;;;;;2.15;2.00;;;;;;;;;;5090402;28;20619;-86
2021/10/17 12:56:58;;;;;;;2.85;2.47;;;;;;;;;;5107474;28;20200;-85
2021/10/17 12:59:28;;;;;;;2.10;1.98;;;;;;;;;;5110184;28;20287;-86
2021/10/17 13:02:10;;;;;;;3.15;2.38;;;;;;;;;;5110656;28;20187;-87
2021/10/17 13:04:42;;;;;;;2.03;1.70;;;;;;;;;;5110822;28;20233;-86
2021/10/17 13:07:10;;;;;;;1.83;1.73;;;;;;;;;;5090067;28;20228;-85
2021/10/17 13:09:46;;;;;;;2.53;2.20;;;;;;;;;;5090001;28;20228;-87
2021/10/17 13:12:23;;;;;;;2.17;1.73;;;;;;;;;;5095561;28;20232;-85
2021/10/17 13:14:59;;;;;;;2.75;2.00;;;;;;;;;;5110763;28;20709;-86
2021/10/17 13:17:27;;;;;;;2.08;1.85;;;;;;;;;;5110844;28;20187;-85
2021/10/17 13:19:57;;;;;;;2.92;2.05;;;;;;;;;;5111094;28;20196;-85
2021/10/17 13:22:24;;;;;;;3.50;2.22;;;;;;;;;;5111506;28;20260;-84
2021/10/17 13:24:52;;;;;;;1.90;1.58;;;;;;;;;;5111430;28;20198;-85
2021/10/17 13:27:19;;;;;;;1.75;1.65;;;;;;;;;;5111389;28;20192;-84
2021/10/17 13:30:14;;;;;;;1.80;1.70;;;;;;;;;;5110495;28;20224;-84
2021/10/17 13:33:05;;;;;;;2.08;1.90;;;;;;;;;;5110130;28;20198;-85
2021/10/17 13:35:36;;;;;;;2.00;1.60;;;;;;;;;;5107183;28;20199;-86
2021/10/17 13:38:05;;;;;;;2.13;1.95;;;;;;;;;;5111123;28;20220;-86
2021/10/17 13:40:32;;;;;;;3.88;1.75;;;;;;;;;;5111500;28;20191;-85
2021/10/17 13:43:03;;;;;;;4.97;1.67;;;;;;;;;;5096297;28;20568;-86
2021/10/17 13:45:32;;;;;;;1.95;1.83;;;;;;;;;;5096318;28;20195;-86
2021/10/17 13:48:01;;;;;;;2.00;1.50;;;;;;;;;;5095792;28;20306;-86
2021/10/17 13:50:29;;;;;;;1.63;1.45;;;;;;;;;;5095231;28;20201;-87
2021/10/17 13:52:58;;;;;;;1.92;1.33;;;;;;;;;;5095697;28;20189;-86
2021/10/17 13:55:26;;;;;;;2.20;1.40;;;;;;;;;;5095330;28;20189;-86
2021/10/17 13:57:53;;;;;;;1.30;1.20;;;;;;;;;;5094963;28;20231;-87
2021/10/17 14:00:27;;;;;;;1.25;1.15;;;;;;;;;;5095512;28;20207;-86
2021/10/17 14:02:56;;;;;;;2.40;1.70;;;;;;;;;;5096159;28;20192;-85
2021/10/17 14:05:29;;;;;;;2.22;1.30;;;;;;;;;;5095166;28;20189;-86
2021/10/17 14:07:58;;;;;;;1.20;1.10;;;;;;;;;;5096393;28;20220;-85
2021/10/17 14:10:25;;;;;;;1.55;1.45;;;;;;;;;;5095790;28;20192;-86
2021/10/17 14:12:53;;;;;;;1.88;1.45;;;;;;;;;;5095806;28;20211;-86
2021/10/17 14:15:20;;;;;;;1.45;1.33;;;;;;;;;;5096189;28;20200;-86
2021/10/17 14:17:47;;;;;;;2.78;1.50;;;;;;;;;;5096186;28;20216;-87
2021/10/17 14:20:15;;;;;;;1.85;1.75;;;;;;;;;;5095631;28;20204;-85
2021/10/17 14:22:43;;;;;;;1.08;1.02;;;;;;;;;;5095773;28;20207;-87
2021/10/17 14:25:12;;;;;;;1.10;1.10;;;;;;;;;;5095672;28;20188;-84
2021/10/17 14:27:39;;;;;;;1.15;1.10;;;;;;;;;;5095555;28;20216;-87
2021/10/17 14:30:08;;;;;;;1.10;1.05;;;;;;;;;;5095363;28;20221;-85
2021/10/17 14:32:35;;;;;;;2.08;1.35;;;;;;;;;;5095262;28;20702;-86
2021/10/17 14:35:03;;;;;;;2.83;1.90;;;;;;;;;;5095630;28;20229;-86
2021/10/17 14:37:30;;;;;;;2.20;1.67;;;;;;;;;;5095227;28;20208;-85
2021/10/17 14:39:58;;;;;;;3.03;2.00;;;;;;;;;;5095438;28;20184;-86
2021/10/17 14:42:27;;;;;;;2.83;2.42;;;;;;;;;;5095486;28;20207;-86
2021/10/17 14:44:54;;;;;;;2.00;1.83;;;;;;;;;;5095205;28;20208;-87
2021/10/17 14:47:22;;;;;;;1.65;1.45;;;;;;;;;;5094667;28;20215;-87
2021/10/17 14:49:49;;;;;;;1.80;1.67;;;;;;;;;;5095252;28;20673;-85
2021/10/17 14:52:17;;;;;;;1.80;1.50;;;;;;;;;;5095108;28;20224;-86
2021/10/17 14:54:44;;;;;;;6.32;2.45;;;;;;;;;;5094195;28;20576;-86
2021/10/17 14:57:12;;;;;;;1.80;1.70;;;;;;;;;;5095864;28;20192;-83
2021/10/17 14:59:41;;;;;;;1.50;1.40;;;;;;;;;;5088035;28;20221;-84
2021/10/17 15:02:09;;;;;;;1.77;1.67;;;;;;;;;;5074710;28;20185;-87